Pagrindinis puslapis
METAR-TAF:

METAR-TAF

Oro uostai :

Røst, Norvegija

platuma: 67-31N, ilguma: 012-06E, Aukštis: 4 m

Dabartinis oras

Ataskaita buvo paskelbta 25 minutes, ne 06:20 UTC
Vėjas 27 kt iš Rytų/Šiaurės Rytų
Temperatūra 2°C
Drėgmė 60%
Slėgis 999 hPa
Matomumas 10 km arba daugiau
Su prošvaistėmis ne aukštis 4000 ft
lietus

METAR: ENRS 020620Z 06027KT 9999 -SHRA BKN040 02/M05 Q0999

Laikas: 07:45 (06:45 UTC)


TAF: trūkstamas

Orai ataskaitas ir orų prognozės (METAR, TAF).

turimą stotys yra geltonos ir raudonos taškus žemėlapyje.

Perkelti pele per norėdami pamatyti stoties vardą.

Tada spustelėkite, norėdami matyti oro stebėjimo ir prognozės.

Norėdami pakeisti žemėlapį: spustelėkite ant žalios mygtukų su juodo kryžiaus žemyn,; žalią mygtuką su brūkšneliu, jei norite nutolinti; arba žalių rodyklių gretimoms žemėlapius.


METAR-TAF: